Time;durP1;ratioP1;P1;durP2;ratioP2;P2;SDS_P1;SDS_P2;PMS_P1;PMS_P2;Temp;Humidity;BMP_temperature;BMP_pressure;BME280_temperature;BME280_humidity;BME280_pressure;Samples;Min_cycle;Max_cycle;Signal;HPM_P1;HPM_P2
2022/03/09 00:02:15;;;;;;;;;59.75;47.25;;;;;7.51;47.57;101019.81;5097580;27;45406;-69
2022/03/09 00:04:41;;;;;;;;;61.00;45.75;;;;;7.48;48.43;101020.72;5097968;27;45669;-70
2022/03/09 00:07:06;;;;;;;;;66.25;50.00;;;;;7.42;48.16;101008.63;5098099;27;45405;-69
2022/03/09 00:09:32;;;;;;;;;66.50;48.00;;;;;7.45;47.79;101015.53;5096606;27;47572;-69
2022/03/09 00:11:57;;;;;;;;;62.00;48.75;;;;;7.40;48.80;101015.63;5097725;27;45248;-69
2022/03/09 00:14:23;;;;;;;;;62.75;46.00;;;;;7.35;48.44;101014.84;5097900;27;45339;-69
2022/03/09 00:16:48;;;;;;;;;64.25;47.25;;;;;7.36;48.40;101024.44;5096700;27;45651;-70
2022/03/09 00:19:14;;;;;;;;;59.50;47.25;;;;;7.35;48.70;101033.16;5097466;27;45388;-70
2022/03/09 00:21:39;;;;;;;;;63.00;48.00;;;;;7.31;48.36;101018.41;5113640;27;45275;-70
2022/03/09 00:24:05;;;;;;;;;59.75;46.75;;;;;7.31;48.73;101031.50;5096420;27;45365;-69
2022/03/09 00:26:31;;;;;;;;;63.75;48.00;;;;;7.24;49.01;101015.09;5098325;27;45483;-69
2022/03/09 00:28:56;;;;;;;;;63.00;47.75;;;;;7.25;48.56;101019.41;5097705;27;46059;-70
2022/03/09 00:31:21;;;;;;;;;64.75;48.00;;;;;7.20;48.40;101018.66;5097666;27;45259;-70
2022/03/09 00:33:47;;;;;;;;;63.00;47.75;;;;;7.21;49.15;101030.84;5097950;27;45185;-69
2022/03/09 00:36:12;;;;;;;;;65.25;47.50;;;;;7.18;49.25;101030.03;5098006;27;45706;-70
2022/03/09 00:38:38;;;;;;;;;63.00;49.00;;;;;7.12;48.96;101029.25;5097648;27;45527;-69
2022/03/09 00:41:03;;;;;;;;;65.25;47.75;;;;;7.12;49.00;101034.47;5079244;27;45302;-70
2022/03/09 00:43:29;;;;;;;;;68.00;49.75;;;;;7.09;49.63;101034.53;5097380;27;45323;-68
2022/03/09 00:45:55;;;;;;;;;68.00;51.50;;;;;7.09;49.65;101025.84;5097426;27;45546;-68
2022/03/09 00:48:20;;;;;;;;;65.00;49.50;;;;;7.08;49.93;101037.19;5097451;27;45994;-70
2022/03/09 00:50:46;;;;;;;;;73.75;55.50;;;;;7.05;48.83;101038.09;5097302;27;45508;-69
2022/03/09 00:53:12;;;;;;;;;72.00;56.00;;;;;7.01;49.00;101028.59;5097423;27;45463;-69
2022/03/09 00:55:38;;;;;;;;;67.75;51.00;;;;;7.01;49.57;101047.78;5097284;27;45619;-69
2022/03/09 00:58:03;;;;;;;;;72.00;51.50;;;;;7.00;49.77;101048.66;5097163;27;45451;-69
2022/03/09 01:00:29;;;;;;;;;59.00;48.00;;;;;6.99;49.86;101048.69;5096922;27;45326;-70
2022/03/09 01:02:54;;;;;;;;;67.25;49.50;;;;;6.98;49.38;101047.81;5097371;27;45226;-69
2022/03/09 01:05:19;;;;;;;;;62.75;48.00;;;;;6.95;49.92;101047.88;5096658;27;45237;-68
2022/03/09 01:07:45;;;;;;;;;67.75;51.50;;;;;6.90;50.34;101039.25;5096614;27;46255;-70
2022/03/09 01:10:11;;;;;;;;;66.50;50.25;;;;;6.95;50.56;101047.00;5112769;27;45419;-70
2022/03/09 01:12:37;;;;;;;;;67.50;51.50;;;;;6.87;50.12;101040.16;5097176;27;45347;-69
2022/03/09 01:15:03;;;;;;;;;71.50;52.50;;;;;6.90;49.47;101046.22;5097204;27;45551;-69
2022/03/09 01:17:28;;;;;;;;;66.50;48.25;;;;;6.88;49.70;101051.47;5096817;27;45401;-70
2022/03/09 01:19:54;;;;;;;;;67.00;51.25;;;;;6.85;49.86;101054.13;5096902;27;45355;-69
2022/03/09 01:22:20;;;;;;;;;67.00;51.50;;;;;6.84;50.36;101053.28;5096998;27;45364;-69
2022/03/09 01:24:46;;;;;;;;;66.25;49.75;;;;;6.80;50.54;101054.22;5096876;27;45544;-70
2022/03/09 01:27:11;;;;;;;;;62.75;45.00;;;;;6.80;49.69;101058.56;5096691;27;45501;-70
2022/03/09 01:29:37;;;;;;;;;65.25;50.25;;;;;6.78;50.08;101058.63;5097215;27;45463;-68
2022/03/09 01:32:02;;;;;;;;;59.75;49.00;;;;;6.78;51.19;101057.75;5097096;27;45320;-70
2022/03/09 01:34:28;;;;;;;;;66.25;51.75;;;;;6.76;50.45;101052.56;5096797;27;45620;-69
2022/03/09 01:36:54;;;;;;;;;59.25;48.00;;;;;6.74;51.44;101056.94;5096831;27;45349;-71
2022/03/09 01:39:20;;;;;;;;;62.25;49.75;;;;;6.75;50.54;101053.44;5096775;27;45392;-69
2022/03/09 01:41:45;;;;;;;;;66.75;52.00;;;;;6.71;50.31;101050.00;5096824;27;45403;-69
2022/03/09 01:44:14;;;;;;;;;66.25;50.25;;;;;6.69;50.80;101050.94;5095956;27;45451;-70
2022/03/09 01:46:41;;;;;;;;;67.50;52.25;;;;;6.69;51.07;101045.69;5096932;27;46540;-70
2022/03/09 01:49:08;;;;;;;;;68.75;52.25;;;;;6.66;51.57;101045.75;5096950;27;45338;-70
2022/03/09 01:51:36;;;;;;;;;64.00;50.75;;;;;6.65;51.42;101041.41;5096731;27;45272;-69
2022/03/09 01:54:03;;;;;;;;;66.50;50.50;;;;;6.65;50.88;101047.50;5112638;27;45548;-69
2022/03/09 01:56:29;;;;;;;;;66.50;50.50;;;;;6.64;50.83;101047.53;5112081;27;47217;-70
2022/03/09 01:58:54;;;;;;;;;61.50;46.50;;;;;6.64;51.75;101042.31;5095948;27;45457;-70
2022/03/09 02:01:19;;;;;;;;;63.75;49.50;;;;;6.67;51.74;101044.88;5095225;27;45425;-71
2022/03/09 02:03:45;;;;;;;;;65.75;51.25;;;;;6.68;51.39;101047.44;5096767;27;45360;-69
2022/03/09 02:06:10;;;;;;;;;62.25;48.25;;;;;6.68;51.66;101041.38;5096256;27;45713;-69
2022/03/09 02:11:21;;;;;;;;;62.25;49.00;;;;;6.68;52.10;101038.75;5095454;27;45407;-69
2022/03/09 02:13:46;;;;;;;;;66.00;49.00;;;;;6.71;51.63;101041.31;5096327;27;45489;-69
2022/03/09 02:16:14;;;;;;;;;65.50;51.00;;;;;6.71;52.11;101038.69;5095923;27;46364;-70
2022/03/09 02:18:40;;;;;;;;;64.50;49.00;;;;;6.71;52.68;101033.47;5099351;27;45714;-68
2022/03/09 02:21:08;;;;;;;;;65.00;48.75;;;;;6.68;52.52;101023.06;5100032;27;45405;-69
2022/03/09 02:23:34;;;;;;;;;64.75;50.75;;;;;6.72;52.41;101040.41;5099914;27;45642;-68
2022/03/09 02:25:59;;;;;;;;;63.50;48.00;;;;;6.70;53.30;101031.75;5097912;27;48403;-68
2022/03/09 02:28:25;;;;;;;;;65.50;49.00;;;;;6.71;52.81;101038.69;5099780;27;45393;-68
2022/03/09 02:30:57;;;;;;;;;64.00;48.50;;;;;6.67;53.81;101029.19;5099681;27;45325;-68
2022/03/09 02:33:23;;;;;;;;;66.25;48.00;;;;;6.70;53.34;101036.97;5115827;27;45548;-68
2022/03/09 02:35:51;;;;;;;;;59.50;47.50;;;;;6.71;53.66;101042.16;5099263;27;46214;-70
2022/03/09 02:38:16;;;;;;;;;55.50;45.00;;;;;6.69;54.05;101036.09;5115040;27;45421;-68
2022/03/09 02:40:41;;;;;;;;;64.00;48.00;;;;;6.68;54.04;101031.75;5099439;27;45304;-68
2022/03/09 02:43:07;;;;;;;;;65.50;50.00;;;;;6.66;54.03;101035.28;5099666;27;45386;-69
2022/03/09 02:45:32;;;;;;;;;60.00;48.00;;;;;6.64;53.89;101032.69;5099155;27;45365;-68
2022/03/09 02:47:57;;;;;;;;;61.75;44.00;;;;;6.67;53.99;101037.03;5099143;27;45404;-68
2022/03/09 02:50:23;;;;;;;;;64.00;48.00;;;;;6.66;55.34;101036.13;5099369;27;45210;-69
2022/03/09 02:52:48;;;;;;;;;64.25;48.50;;;;;6.63;55.45;101030.13;5115232;27;45306;-69
2022/03/09 02:55:14;;;;;;;;;60.50;45.50;;;;;6.62;55.59;101037.06;5097713;27;46961;-69
2022/03/09 02:57:42;;;;;;;;;60.75;48.75;;;;;6.62;55.08;101044.94;5099190;27;45334;-69
2022/03/09 03:00:11;;;;;;;;;62.00;45.25;;;;;6.59;55.34;101044.97;5098292;27;45384;-69
2022/03/09 03:02:37;;;;;;;;;61.50;46.50;;;;;6.58;55.96;101046.75;5099220;27;45350;-69
2022/03/09 03:05:03;;;;;;;;;60.75;46.50;;;;;6.58;56.07;101051.97;5114526;27;46366;-70
2022/03/09 03:07:29;;;;;;;;;62.00;46.00;;;;;6.58;56.70;101053.69;5098940;27;45306;-70
2022/03/09 03:09:55;;;;;;;;;58.50;46.00;;;;;6.57;56.38;101057.22;5114754;27;45349;-69
2022/03/09 03:12:21;;;;;;;;;61.25;46.25;;;;;6.56;56.90;101053.75;5099326;27;45238;-68
2022/03/09 03:14:46;;;;;;;;;61.00;45.75;;;;;6.54;56.91;101052.91;5097447;27;48642;-68
2022/03/09 03:17:11;;;;;;;;;58.50;44.50;;;;;6.55;56.98;101054.63;5098933;27;45388;-70
2022/03/09 03:19:37;;;;;;;;;59.00;44.75;;;;;6.52;57.56;101056.41;5099107;27;45309;-70
2022/03/09 03:22:02;;;;;;;;;62.75;48.25;;;;;6.52;56.80;101059.91;5097571;27;45576;-68
2022/03/09 03:24:28;;;;;;;;;58.25;46.75;;;;;6.49;57.16;101054.72;5097220;27;45574;-68
2022/03/09 03:26:53;;;;;;;;;71.50;51.50;;;;;6.47;57.35;101048.66;5114500;27;45392;-68
2022/03/09 03:29:19;;;;;;;;;66.50;49.50;;;;;6.45;57.18;101050.44;5097790;27;45427;-68
2022/03/09 03:31:44;;;;;;;;;66.25;50.25;;;;;6.44;56.79;101046.09;5098909;27;45470;-68
2022/03/09 03:34:09;;;;;;;;;68.25;50.00;;;;;6.42;56.69;101040.88;5098817;27;45438;-68
2022/03/09 03:36:35;;;;;;;;;61.75;47.50;;;;;6.41;57.42;101039.16;5098467;27;45409;-68
2022/03/09 03:39:01;;;;;;;;;66.50;51.75;;;;;6.38;57.65;101036.59;5098399;27;45332;-69
2022/03/09 03:41:26;;;;;;;;;66.50;50.00;;;;;6.39;57.62;101037.47;5098657;27;45363;-68
2022/03/09 03:43:51;;;;;;;;;60.75;47.75;;;;;6.38;56.75;101046.19;5098192;27;46104;-70
2022/03/09 03:46:17;;;;;;;;;66.50;49.25;;;;;6.32;58.18;101038.41;5098120;27;45301;-69
2022/03/09 03:48:42;;;;;;;;;66.50;49.25;;;;;6.33;57.74;101051.47;5098529;27;45319;-69
2022/03/09 03:51:07;;;;;;;;;70.00;50.00;;;;;6.32;58.46;101054.09;5098525;27;45303;-70
2022/03/09 03:53:33;;;;;;;;;64.00;50.75;;;;;6.32;57.54;101054.09;5098201;27;45293;-69
2022/03/09 03:55:58;;;;;;;;;61.50;49.00;;;;;6.31;57.43;101045.41;5098331;27;45421;-69
2022/03/09 03:58:24;;;;;;;;;63.50;49.00;;;;;6.29;58.45;101053.25;5098193;27;45653;-69
2022/03/09 04:00:49;;;;;;;;;68.50;51.00;;;;;6.28;58.76;101048.06;5098338;27;45511;-68
2022/03/09 04:03:14;;;;;;;;;65.75;50.00;;;;;6.27;58.86;101056.78;5096938;27;46038;-71
2022/03/09 04:05:40;;;;;;;;;60.75;47.00;;;;;6.28;59.10;101059.38;5097070;27;46301;-70
2022/03/09 04:08:05;;;;;;;;;65.50;49.75;;;;;6.26;58.60;101052.44;5098361;27;45180;-69
2022/03/09 04:10:31;;;;;;;;;64.75;48.50;;;;;6.24;59.49;101056.84;5096910;27;45636;-70
2022/03/09 04:13:00;;;;;;;;;66.25;50.75;;;;;6.24;59.27;101060.28;5113880;27;47270;-70
2022/03/09 04:15:26;;;;;;;;;67.00;51.50;;;;;6.27;59.61;101062.88;5098204;27;45451;-70
2022/03/09 04:17:52;;;;;;;;;70.50;51.75;;;;;6.23;58.95;101058.56;5098056;27;45376;-69
2022/03/09 04:20:18;;;;;;;;;69.00;53.00;;;;;6.20;58.96;101061.22;5098261;27;45395;-70
2022/03/09 04:22:43;;;;;;;;;70.00;54.00;;;;;6.22;58.16;101067.28;5098143;27;45498;-72
2022/03/09 04:25:09;;;;;;;;;61.00;46.25;;;;;6.18;57.77;101057.78;5097705;27;45304;-70
2022/03/09 04:27:35;;;;;;;;;75.25;54.75;;;;;6.16;57.95;101054.31;5096717;27;45413;-70
2022/03/09 04:30:01;;;;;;;;;74.25;53.00;;;;;6.12;57.62;101060.47;5097829;27;45551;-70
2022/03/09 04:32:26;;;;;;;;;68.00;52.00;;;;;6.11;57.80;101053.53;5097667;27;45568;-70
2022/03/09 04:34:53;;;;;;;;;73.25;53.50;;;;;6.09;57.86;101057.91;5113655;27;45291;-70
2022/03/09 04:37:20;;;;;;;;;68.75;52.00;;;;;6.04;58.43;101047.53;5097809;27;45404;-70
2022/03/09 04:39:45;;;;;;;;;69.75;54.75;;;;;6.06;57.97;101055.34;5097714;27;45387;-70
2022/03/09 04:42:11;;;;;;;;;68.25;53.75;;;;;6.02;58.53;101059.75;5095125;27;46148;-70
2022/03/09 04:44:37;;;;;;;;;75.25;55.00;;;;;6.02;58.48;101058.88;5097088;27;45426;-71
2022/03/09 04:47:02;;;;;;;;;68.00;52.75;;;;;5.97;58.64;101058.91;5097440;27;45482;-71
2022/03/09 04:49:28;;;;;;;;;73.25;54.00;;;;;5.97;58.47;101066.75;5097660;27;45384;-70
2022/03/09 04:51:53;;;;;;;;;73.67;55.67;;;;;5.90;58.19;101065.97;5097272;27;46020;-70
2022/03/09 04:54:18;;;;;;;;;71.50;52.00;;;;;5.89;58.35;101066.00;5097333;27;45377;-70
2022/03/09 04:56:44;;;;;;;;;68.50;53.25;;;;;5.85;58.43;101068.66;5097707;27;45320;-69
2022/03/09 04:59:09;;;;;;;;;65.00;50.25;;;;;5.85;58.42;101079.09;5097153;27;45295;-69
2022/03/09 05:01:34;;;;;;;;;68.00;52.75;;;;;5.84;58.29;101079.97;5095572;27;48147;-70
2022/03/09 05:04:00;;;;;;;;;65.50;50.00;;;;;5.80;58.55;101080.00;5095630;27;45254;-69
2022/03/09 05:06:25;;;;;;;;;70.25;52.75;;;;;5.77;58.67;101073.06;5095828;27;45422;-70
2022/03/09 05:08:51;;;;;;;;;68.00;51.00;;;;;5.73;59.09;101076.59;5113431;27;45330;-71
2022/03/09 05:11:16;;;;;;;;;64.50;50.50;;;;;5.70;59.56;101077.50;5095846;27;48217;-70
2022/03/09 05:13:42;;;;;;;;;67.00;52.00;;;;;5.73;60.19;101080.97;5095911;27;45264;-70
2022/03/09 05:16:08;;;;;;;;;64.75;48.75;;;;;5.74;60.13;101080.09;5097110;27;45217;-71
2022/03/09 05:18:37;;;;;;;;;65.25;50.00;;;;;5.72;60.25;101084.47;5113224;27;45354;-71
2022/03/09 05:21:03;;;;;;;;;65.25;51.00;;;;;5.72;60.55;101092.28;5096620;27;46465;-70
2022/03/09 05:23:29;;;;;;;;;63.25;48.75;;;;;5.70;61.14;101094.91;5096677;27;45227;-69
2022/03/09 05:25:54;;;;;;;;;61.50;47.25;;;;;5.69;61.11;101098.41;5095282;27;45263;-70
2022/03/09 05:28:19;;;;;;;;;66.50;49.50;;;;;5.67;61.66;101101.03;5095692;27;45249;-69
2022/03/09 05:30:45;;;;;;;;;65.50;48.50;;;;;5.65;61.82;101100.19;5096896;27;46354;-71
2022/03/09 05:33:10;;;;;;;;;61.50;45.25;;;;;5.66;61.33;101103.66;5096582;27;45411;-69
2022/03/09 05:35:37;;;;;;;;;62.75;47.50;;;;;5.63;61.45;101107.19;5096721;27;45370;-71
2022/03/09 05:38:02;;;;;;;;;62.50;49.00;;;;;5.63;62.19;101106.31;5096787;27;45465;-69
2022/03/09 05:40:28;;;;;;;;;57.25;44.50;;;;;5.60;61.86;101096.78;5096604;27;46044;-70
2022/03/09 05:42:53;;;;;;;;;62.00;47.25;;;;;5.61;62.01;101108.06;5096407;27;45385;-69
2022/03/09 05:45:19;;;;;;;;;57.75;44.75;;;;;5.61;62.16;101110.69;5096102;27;45294;-69
2022/03/09 05:47:44;;;;;;;;;64.00;48.75;;;;;5.59;61.92;101117.66;5096852;27;45681;-72
2022/03/09 05:50:10;;;;;;;;;57.75;44.25;;;;;5.57;61.96;101120.31;5096635;27;45435;-69
2022/03/09 05:52:35;;;;;;;;;64.25;45.25;;;;;5.56;62.24;101122.03;5095870;27;45329;-69
2022/03/09 05:55:01;;;;;;;;;60.75;47.75;;;;;5.55;62.47;101122.06;5096426;27;45313;-70
2022/03/09 05:57:26;;;;;;;;;62.25;48.00;;;;;5.55;61.94;101133.34;5096271;27;45611;-70
2022/03/09 05:59:52;;;;;;;;;59.50;44.50;;;;;5.55;61.94;101132.50;5095830;27;46679;-71
2022/03/09 06:02:18;;;;;;;;;56.00;45.75;;;;;5.49;62.22;101132.56;5096616;27;45432;-71
2022/03/09 06:04:45;;;;;;;;;61.75;48.00;;;;;5.47;61.64;101129.97;5096334;27;45639;-71
2022/03/09 06:07:10;;;;;;;;;63.50;46.00;;;;;5.46;61.93;101128.22;5097018;27;45624;-68
2022/03/09 06:09:36;;;;;;;;;63.00;48.00;;;;;5.43;62.25;101135.25;5097424;27;45388;-68
2022/03/09 06:12:01;;;;;;;;;58.00;46.75;;;;;5.39;62.08;101129.16;5096650;27;45324;-71
2022/03/09 06:14:26;;;;;;;;;65.00;50.00;;;;;5.38;62.85;101125.72;5096292;27;45327;-70
2022/03/09 06:16:52;;;;;;;;;60.00;47.25;;;;;5.38;61.98;101143.97;5096356;27;45353;-70
2022/03/09 06:19:17;;;;;;;;;54.75;46.25;;;;;5.38;61.94;101146.59;5096072;27;46062;-70
2022/03/09 06:21:43;;;;;;;;;59.50;47.00;;;;;5.43;62.43;101143.06;5096083;27;45401;-70
2022/03/09 06:24:09;;;;;;;;;37.50;33.50;;;;;5.46;62.32;101145.66;5096089;27;45276;-69
2022/03/09 06:26:36;;;;;;;;;59.75;47.25;;;;;5.54;62.28;101146.44;5095034;27;45585;-71
2022/03/09 06:29:03;;;;;;;;;59.75;47.00;;;;;5.58;62.18;101135.06;5095645;27;46561;-70
2022/03/09 06:31:28;;;;;;;;;56.75;43.00;;;;;5.68;62.12;101143.66;5094701;27;45292;-71
2022/03/09 06:33:54;;;;;;;;;57.00;42.75;;;;;5.77;62.70;101145.31;5095636;27;45543;-71
2022/03/09 06:36:19;;;;;;;;;56.75;44.25;;;;;5.84;62.67;101142.63;5094844;27;45342;-72
2022/03/09 06:38:44;;;;;;;;;57.50;45.75;;;;;5.92;62.30;101152.13;5094389;27;47422;-70
2022/03/09 06:41:10;;;;;;;;;60.00;45.25;;;;;5.96;62.46;101153.81;5094202;27;46128;-68
2022/03/09 06:43:35;;;;;;;;;55.50;44.25;;;;;6.01;63.33;101153.78;5095878;27;45410;-72
2022/03/09 06:46:01;;;;;;;;;65.50;48.00;;;;;6.05;62.57;101151.13;5096203;27;45283;-70
2022/03/09 06:48:26;;;;;;;;;57.75;44.50;;;;;6.11;62.71;101152.78;5095585;27;47097;-71
2022/03/09 06:50:52;;;;;;;;;58.00;46.25;;;;;6.17;62.57;101151.84;5095800;27;45291;-71
2022/03/09 06:53:17;;;;;;;;;58.00;43.75;;;;;6.17;62.48;101157.94;5112127;27;45397;-71
2022/03/09 06:55:42;;;;;;;;;63.25;47.25;;;;;6.14;62.71;101156.22;5095735;27;45356;-70
2022/03/09 06:58:08;;;;;;;;;55.50;43.75;;;;;6.09;63.25;101152.81;5094658;27;46457;-70
2022/03/09 07:00:36;;;;;;;;;63.25;47.25;;;;;6.10;63.38;101157.16;5094739;27;45355;-68
2022/03/09 07:03:02;;;;;;;;;62.50;48.25;;;;;6.10;63.12;101171.94;5093082;27;45461;-66
2022/03/09 07:05:27;;;;;;;;;64.00;47.75;;;;;6.08;63.78;101165.88;5096292;27;45481;-66
2022/03/09 07:07:53;;;;;;;;;58.25;45.75;;;;;6.09;63.62;101173.72;5097512;27;46117;-65
2022/03/09 07:10:18;;;;;;;;;59.00;44.50;;;;;6.06;63.62;101163.31;5099365;27;45215;-65
2022/03/09 07:12:45;;;;;;;;;58.25;45.25;;;;;6.06;64.02;101173.75;5098735;27;45453;-64
2022/03/09 07:15:12;;;;;;;;;58.25;45.00;;;;;6.01;64.50;101165.09;5098752;27;45311;-64
2022/03/09 07:17:39;;;;;;;;;61.50;47.00;;;;;6.05;64.40;101181.59;5097183;27;46108;-66
2022/03/09 07:20:05;;;;;;;;;56.25;45.50;;;;;6.07;64.38;101183.31;5098635;27;45484;-64
2022/03/09 07:22:31;;;;;;;;;59.00;46.00;;;;;6.13;64.88;101184.97;5098627;27;45487;-64
2022/03/09 07:24:56;;;;;;;;;55.00;44.00;;;;;6.21;64.90;101190.97;5098520;27;45408;-64
2022/03/09 07:27:22;;;;;;;;;59.25;46.75;;;;;6.32;65.00;101197.81;5098941;27;45556;-64
2022/03/09 07:29:47;;;;;;;;;63.50;48.50;;;;;6.45;64.84;101199.41;5098454;27;45468;-64
2022/03/09 07:32:14;;;;;;;;;65.25;48.75;;;;;6.57;64.36;101201.84;5098605;27;45456;-65
2022/03/09 07:34:40;;;;;;;;;60.25;48.25;;;;;6.70;64.90;101199.06;5097182;27;45596;-65
2022/03/09 07:37:06;;;;;;;;;61.25;46.25;;;;;6.86;65.06;101199.69;5096490;27;46851;-65
2022/03/09 07:39:32;;;;;;;;;63.25;47.00;;;;;7.04;65.03;101209.03;5098203;27;45272;-64
2022/03/09 07:41:58;;;;;;;;;56.75;46.50;;;;;7.22;64.39;101212.22;5096908;27;45234;-64
2022/03/09 07:44:24;;;;;;;;;57.50;45.50;;;;;7.40;64.22;101204.06;5098575;27;45382;-64
2022/03/09 07:46:50;;;;;;;;;59.00;45.75;;;;;7.57;63.59;101202.94;5098339;27;45353;-65
2022/03/09 07:49:17;;;;;;;;;51.00;42.00;;;;;7.71;63.68;101203.56;5098097;27;45419;-64
2022/03/09 07:51:43;;;;;;;;;57.75;45.25;;;;;7.85;62.69;101205.91;5097981;27;45310;-64
2022/03/09 07:54:09;;;;;;;;;55.25;43.25;;;;;7.98;62.77;101210.94;5097601;27;45325;-65
2022/03/09 07:56:37;;;;;;;;;64.25;46.00;;;;;8.12;62.65;101208.03;5097329;27;45227;-66
2022/03/09 07:59:04;;;;;;;;;54.25;44.00;;;;;8.26;62.02;101219.09;5097810;27;45458;-68
2022/03/09 08:01:29;;;;;;;;;55.75;45.00;;;;;8.38;62.18;101220.63;5098042;27;45824;-67
2022/03/09 08:03:55;;;;;;;;;62.00;45.00;;;;;8.56;61.49;101218.53;5098206;27;45440;-71
2022/03/09 08:06:21;;;;;;;;;57.00;45.50;;;;;8.72;61.08;101221.69;5097500;27;47520;-63
2022/03/09 08:08:46;;;;;;;;;51.50;41.00;;;;;8.84;61.25;101221.41;5097926;27;45346;-71
2022/03/09 08:11:12;;;;;;;;;50.75;42.50;;;;;8.98;60.93;101222.84;5098535;27;45307;-68
2022/03/09 08:13:37;;;;;;;;;53.75;42.75;;;;;9.09;60.78;101228.72;5097269;27;45469;-69
2022/03/09 08:16:03;;;;;;;;;54.00;44.50;;;;;9.16;61.11;101226.81;5097992;27;45578;-71
2022/03/09 08:18:28;;;;;;;;;53.50;44.00;;;;;9.25;60.96;101229.22;5096587;27;46061;-66
2022/03/09 08:20:54;;;;;;;;;51.25;40.50;;;;;9.33;60.79;101229.00;5098565;27;45264;-68
2022/03/09 08:23:20;;;;;;;;;52.25;41.75;;;;;9.43;60.48;101221.78;5097918;27;45231;-69
2022/03/09 08:25:45;;;;;;;;;54.00;42.75;;;;;9.54;60.43;101222.38;5097383;27;46340;-68
2022/03/09 08:28:10;;;;;;;;;55.00;42.75;;;;;9.65;60.75;101219.47;5098190;27;45409;-69
2022/03/09 08:30:38;;;;;;;;;54.50;41.75;;;;;9.73;60.67;101227.16;5113590;27;45711;-64
2022/03/09 08:33:03;;;;;;;;;51.25;41.50;;;;;9.85;60.06;101232.06;5097701;27;45626;-63
2022/03/09 08:35:29;;;;;;;;;51.00;41.25;;;;;9.93;60.13;101230.09;5097036;27;45543;-65
2022/03/09 08:37:54;;;;;;;;;55.00;43.00;;;;;10.01;59.65;101227.28;5097585;27;45401;-68
2022/03/09 08:40:19;;;;;;;;;48.75;38.75;;;;;10.11;59.79;101235.78;5097397;27;45398;-65
2022/03/09 08:42:46;;;;;;;;;51.75;41.75;;;;;10.17;59.86;101237.38;5097824;27;45374;-66
2022/03/09 08:45:11;;;;;;;;;56.25;44.00;;;;;10.22;59.86;101236.34;5095715;27;48364;-67
2022/03/09 08:47:38;;;;;;;;;50.75;39.50;;;;;10.26;59.41;101241.53;5096974;27;45298;-68
2022/03/09 08:50:04;;;;;;;;;47.50;38.25;;;;;10.27;59.73;101233.56;5097203;27;45324;-67
2022/03/09 08:52:30;;;;;;;;;45.25;37.50;;;;;10.31;60.36;101239.63;5097074;27;45572;-65
2022/03/09 08:54:55;;;;;;;;;50.00;37.75;;;;;10.36;60.49;101232.47;5097161;27;46994;-65
2022/03/09 08:57:21;;;;;;;;;42.00;34.25;;;;;10.44;60.66;101229.63;5095549;27;45385;-64
2022/03/09 08:59:47;;;;;;;;;45.50;34.75;;;;;10.52;60.92;101238.16;5097472;27;45277;-69
2022/03/09 09:02:12;;;;;;;;;30.50;29.75;;;;;10.49;61.65;101231.22;5097098;27;45444;-67
2022/03/09 09:04:38;;;;;;;;;36.25;28.25;;;;;10.54;61.98;101232.84;5096913;27;46269;-66
2022/03/09 09:07:04;;;;;;;;;34.50;28.50;;;;;10.56;62.09;101239.78;5096849;27;45416;-66
2022/03/09 09:09:29;;;;;;;;;40.50;34.50;;;;;10.59;61.94;101239.69;5096999;27;45409;-68
2022/03/09 09:11:55;;;;;;;;;30.50;25.00;;;;;10.64;61.86;101235.19;5113463;27;45671;-66
2022/03/09 09:14:20;;;;;;;;;29.25;26.75;;;;;10.59;61.86;101236.22;5096411;27;46009;-67
2022/03/09 09:16:47;;;;;;;;;31.75;25.50;;;;;10.52;62.43;101232.88;5097082;27;45301;-66
2022/03/09 09:19:12;;;;;;;;;34.50;29.25;;;;;10.58;62.78;101226.59;5095646;27;45318;-67
2022/03/09 09:21:38;;;;;;;;;36.25;27.00;;;;;10.59;62.59;101233.59;5096979;27;45375;-70
2022/03/09 09:24:04;;;;;;;;;32.50;28.25;;;;;10.60;62.40;101245.81;5096706;27;46143;-68
2022/03/09 09:26:29;;;;;;;;;30.75;23.50;;;;;10.62;62.79;101244.88;5077773;27;45264;-66
2022/03/09 09:28:55;;;;;;;;;30.25;29.50;;;;;10.64;62.98;101247.47;5112828;27;45431;-65
2022/03/09 09:31:20;;;;;;;;;33.50;26.50;;;;;10.66;63.08;101240.38;5096807;27;45233;-67
2022/03/09 09:33:46;;;;;;;;;23.50;23.50;;;;;10.76;63.01;101235.72;5096298;27;45774;-67
2022/03/09 09:36:15;;;;;;;;;26.50;23.00;;;;;10.88;62.62;101218.66;5096633;27;45226;-67
2022/03/09 09:38:41;;;;;;;;;28.00;25.75;;;;;11.01;62.98;101224.41;5096514;27;45453;-67
2022/03/09 09:41:10;;;;;;;;;42.25;33.75;;;;;11.07;62.97;101224.22;5096512;27;45365;-67
2022/03/09 09:43:38;;;;;;;;;31.75;29.25;;;;;11.17;62.28;101220.38;5096585;27;45234;-69
2022/03/09 09:46:03;;;;;;;;;31.50;30.25;;;;;11.31;61.91;101225.22;5095190;27;45290;-67
2022/03/09 09:48:28;;;;;;;;;32.75;25.75;;;;;11.37;61.98;101211.84;5096860;27;45519;-70
2022/03/09 09:50:55;;;;;;;;;27.00;25.25;;;;;11.43;61.46;101221.28;5096679;27;45434;-68
2022/03/09 09:53:22;;;;;;;;;31.25;26.00;;;;;11.38;61.49;101210.03;5111983;27;45385;-67
2022/03/09 09:55:48;;;;;;;;;23.50;22.50;;;;;11.33;61.55;101209.34;5112223;27;45485;-68
2022/03/09 09:58:17;;;;;;;;;22.75;20.50;;;;;11.29;62.03;101205.97;5096194;27;45280;-67
2022/03/09 10:00:44;;;;;;;;;24.75;23.50;;;;;11.24;61.59;101206.09;5096474;27;45498;-69
2022/03/09 10:03:10;;;;;;;;;29.25;26.00;;;;;11.18;61.56;101214.19;5096060;27;46433;-67
2022/03/09 10:05:35;;;;;;;;;18.75;18.50;;;;;11.09;62.17;101206.59;5096092;27;45398;-66
2022/03/09 10:08:03;;;;;;;;;26.00;21.25;;;;;11.07;62.83;101213.69;5096203;27;45455;-64
2022/03/09 10:10:41;;;;;;;;;29.75;24.00;;;;;11.06;62.51;101202.28;5112011;27;45254;-68
2022/03/09 10:13:43;;;;;;;;;26.00;21.25;;;;;11.11;62.41;101207.41;5096077;27;45384;-67
2022/03/09 10:16:12;;;;;;;;;27.00;25.00;;;;;11.23;62.31;101214.91;5093291;27;45258;-68
2022/03/09 10:18:38;;;;;;;;;21.50;19.50;;;;;11.28;62.80;101212.13;5095606;27;45236;-65
2022/03/09 10:21:13;;;;;;;;;22.00;18.00;;;;;11.32;62.37;101208.50;5096157;27;45477;-65
2022/03/09 10:23:57;;;;;;;;;19.25;18.50;;;;;11.34;62.49;101204.03;5095720;27;46529;-66
2022/03/09 10:26:27;;;;;;;;;24.75;24.75;;;;;11.39;61.94;101199.47;5095580;27;45184;-66
2022/03/09 10:28:59;;;;;;;;;24.75;19.00;;;;;11.45;62.03;101205.44;5095744;27;45408;-67
2022/03/09 10:31:36;;;;;;;;;25.50;22.25;;;;;11.44;61.98;101196.66;5095913;27;45438;-65
2022/03/09 10:34:05;;;;;;;;;24.00;21.00;;;;;11.49;62.21;101200.00;5095907;27;46594;-69
2022/03/09 10:36:30;;;;;;;;;27.25;23.25;;;;;11.60;62.45;101198.78;5095753;27;45310;-66
2022/03/09 10:39:17;;;;;;;;;27.25;25.25;;;;;11.67;61.23;101197.69;5097372;27;45264;-66
2022/03/09 10:41:46;;;;;;;;;27.50;23.50;;;;;11.72;61.32;101197.50;5100071;27;45226;-67
2022/03/09 10:44:12;;;;;;;;;29.50;23.50;;;;;11.83;61.25;101200.59;5114798;27;47473;-66
2022/03/09 10:46:46;;;;;;;;;82.00;75.00;;;;;11.94;61.30;101193.19;5097873;27;45688;-69
2022/03/09 10:49:14;;;;;;;;;49.75;40.00;;;;;12.01;60.83;101185.94;5099475;27;45397;-70
2022/03/09 10:51:40;;;;;;;;;19.00;17.75;;;;;12.08;60.45;101184.81;5099284;27;45224;-66
2022/03/09 10:54:19;;;;;;;;;20.00;19.00;;;;;12.16;59.79;101183.66;5098732;27;45360;-67
2022/03/09 10:56:45;;;;;;;;;17.75;17.50;;;;;12.29;59.77;101198.09;5098921;27;45349;-68
2022/03/09 10:59:14;;;;;;;;;22.00;19.25;;;;;12.40;59.88;101195.06;5097188;27;45477;-68
2022/03/09 11:01:40;;;;;;;;;16.75;15.75;;;;;12.52;58.76;101204.28;5098778;27;45297;-66
2022/03/09 11:04:17;;;;;;;;;21.75;19.50;;;;;12.56;59.13;101192.69;5098550;27;45345;-67
2022/03/09 11:06:46;;;;;;;;;18.50;17.25;;;;;12.66;58.90;101196.69;5098514;27;45324;-65
2022/03/09 11:09:16;;;;;;;;;22.00;21.50;;;;;12.78;58.48;101190.09;5098797;27;45361;-70
2022/03/09 11:11:45;;;;;;;;;19.00;16.75;;;;;12.88;58.28;101182.66;5098588;27;45563;-67
2022/03/09 11:14:12;;;;;;;;;20.25;18.50;;;;;13.06;58.02;101188.13;5114147;27;46460;-67